createdAt,value
2019-04-10T00:01:06.428Z,5.03
2019-04-10T00:03:37.967Z,3.73
2019-04-10T00:06:04.729Z,4.03
2019-04-10T00:08:34.412Z,5.47
2019-04-10T00:11:03.058Z,4.40
2019-04-10T00:13:32.512Z,3.83
2019-04-10T00:16:01.070Z,4.63
2019-04-10T00:18:29.834Z,4.50
2019-04-10T00:20:58.639Z,4.20
2019-04-10T00:23:27.210Z,4.93
2019-04-10T00:25:55.769Z,4.43
2019-04-10T00:28:25.449Z,3.67
2019-04-10T00:30:54.015Z,4.53
2019-04-10T00:33:22.915Z,4.50
2019-04-10T00:35:51.973Z,5.03
2019-04-10T00:38:20.646Z,4.23
2019-04-10T00:40:49.955Z,6.03
2019-04-10T00:43:19.042Z,4.33
2019-04-10T00:45:47.635Z,4.10
2019-04-10T00:48:16.199Z,4.03
2019-04-10T00:50:44.786Z,4.03
2019-04-10T00:53:13.346Z,3.80
2019-04-10T00:55:41.953Z,4.17
2019-04-10T00:58:10.491Z,5.50
2019-04-10T01:00:39.304Z,3.97
2019-04-10T01:03:07.978Z,4.73
2019-04-10T01:05:37.529Z,4.03
2019-04-10T01:08:06.641Z,4.30
2019-04-10T01:10:35.371Z,4.40
2019-04-10T01:13:04.912Z,5.63
2019-04-10T01:15:34.464Z,5.27
2019-04-10T01:18:03.025Z,4.27
2019-04-10T01:20:31.613Z,6.63
2019-04-10T01:23:00.173Z,7.23
2019-04-10T01:25:28.758Z,5.87
2019-04-10T01:27:58.394Z,5.53
2019-04-10T01:30:26.999Z,4.13
2019-04-10T01:32:56.462Z,5.53
2019-04-10T01:35:25.162Z,5.97
2019-04-10T01:37:58.185Z,4.93
2019-04-10T01:40:23.945Z,4.43
2019-04-10T01:43:03.691Z,4.23
2019-04-10T01:45:22.801Z,5.57
2019-04-10T01:47:51.361Z,5.07
2019-04-10T01:50:20.201Z,3.67
2019-04-10T01:52:49.219Z,3.80
2019-04-10T01:55:25.351Z,4.07
2019-04-10T01:57:51.083Z,4.07
2019-04-10T02:00:21.647Z,5.00
2019-04-10T02:02:51.886Z,4.93
2019-04-10T02:05:21.018Z,4.53
2019-04-10T02:08:01.161Z,5.17
2019-04-10T02:10:20.394Z,4.30
2019-04-10T02:12:49.382Z,4.40
2019-04-10T02:15:18.395Z,6.13
2019-04-10T02:17:47.135Z,5.30
2019-04-10T02:20:15.901Z,5.57
2019-04-10T02:22:45.751Z,4.43
2019-04-10T02:25:15.798Z,4.60
2019-04-10T02:27:44.808Z,3.90
2019-04-10T02:30:15.080Z,6.10
2019-04-10T02:32:47.666Z,4.00
2019-04-10T02:35:17.224Z,4.77
2019-04-10T02:37:44.873Z,5.93
2019-04-10T02:40:15.032Z,4.40
2019-04-10T02:42:45.170Z,5.43
2019-04-10T02:45:15.054Z,5.90
2019-04-10T02:47:45.018Z,4.90
2019-04-10T02:50:14.227Z,4.30
2019-04-10T02:52:43.311Z,4.67
2019-04-10T02:55:12.192Z,5.57
2019-04-10T02:57:41.403Z,4.73
2019-04-10T03:00:12.772Z,5.07
2019-04-10T03:02:41.672Z,4.70
2019-04-10T03:05:11.039Z,5.07
2019-04-10T03:07:40.321Z,4.77
2019-04-10T03:10:20.547Z,4.23
2019-04-10T03:12:41.090Z,4.50
2019-04-10T03:15:12.337Z,4.00
2019-04-10T03:17:40.583Z,4.37
2019-04-10T03:20:10.048Z,4.80
2019-04-10T03:22:38.878Z,4.73
2019-04-10T03:25:08.901Z,4.97
2019-04-10T03:27:38.536Z,4.63
2019-04-10T03:30:10.333Z,4.17
2019-04-10T03:32:47.660Z,5.03
2019-04-10T03:35:18.691Z,4.77
2019-04-10T03:37:47.306Z,5.10
2019-04-10T03:40:15.914Z,4.83
2019-04-10T03:42:45.437Z,4.77
2019-04-10T03:45:14.275Z,4.47
2019-04-10T03:47:43.857Z,5.73
2019-04-10T03:50:12.758Z,6.27
2019-04-10T03:52:41.339Z,5.13
2019-04-10T03:55:10.467Z,6.10
2019-04-10T03:57:39.118Z,4.97
2019-04-10T04:00:07.852Z,4.50
2019-04-10T04:02:36.436Z,6.17
2019-04-10T04:05:06.509Z,5.30
2019-04-10T04:07:35.222Z,4.50
2019-04-10T04:10:06.551Z,5.70
2019-04-10T04:12:35.107Z,4.97
2019-04-10T04:15:05.368Z,5.30
2019-04-10T04:17:33.974Z,5.20
2019-04-10T04:20:02.872Z,4.67
2019-04-10T04:22:32.404Z,3.67
2019-04-10T04:25:01.316Z,5.70
2019-04-10T04:27:29.894Z,5.87
2019-04-10T04:29:59.550Z,4.50
2019-04-10T04:32:29.296Z,5.63
2019-04-10T04:34:57.930Z,5.43
2019-04-10T04:37:26.517Z,5.63
2019-04-10T04:39:56.255Z,4.60
2019-04-10T04:42:24.868Z,5.10
2019-04-10T04:44:54.229Z,4.67
2019-04-10T04:47:22.818Z,5.93
2019-04-10T04:49:52.349Z,5.07
2019-04-10T04:52:20.971Z,4.60
2019-04-10T04:54:49.840Z,4.70
2019-04-10T04:57:18.423Z,4.13
2019-04-10T04:59:46.985Z,5.73
2019-04-10T05:02:15.575Z,5.00
2019-04-10T05:04:44.136Z,4.33
2019-04-10T05:07:13.561Z,4.40
2019-04-10T05:09:42.567Z,4.40
2019-04-10T05:12:11.379Z,5.43
2019-04-10T05:14:39.983Z,4.13
2019-04-10T05:17:08.703Z,4.13
2019-04-10T05:19:38.253Z,4.67
2019-04-10T05:22:07.955Z,4.00
2019-04-10T05:24:36.590Z,4.87
2019-04-10T05:27:05.745Z,3.87
2019-04-10T05:29:34.594Z,5.77
2019-04-10T05:32:03.187Z,5.40
2019-04-10T05:34:31.810Z,5.43
2019-04-10T05:37:00.363Z,3.90
2019-04-10T05:39:39.838Z,4.73
2019-04-10T05:42:01.900Z,3.40
2019-04-10T05:44:29.355Z,4.37
2019-04-10T05:46:57.991Z,5.90
2019-04-10T05:49:26.600Z,5.57
2019-04-10T05:51:55.624Z,5.97
2019-04-10T05:54:24.703Z,6.27
2019-04-10T05:56:53.338Z,6.97
2019-04-10T05:59:21.894Z,4.47
2019-04-10T06:01:50.618Z,5.40
2019-04-10T06:04:19.152Z,5.07
2019-04-10T06:06:48.480Z,4.50
2019-04-10T06:09:17.104Z,5.20
2019-04-10T06:11:46.160Z,4.53
2019-04-10T06:14:15.804Z,5.20
2019-04-10T06:16:44.733Z,5.27
2019-04-10T06:19:13.637Z,5.97
2019-04-10T06:21:42.199Z,5.57
2019-04-10T06:24:11.896Z,5.60
2019-04-10T06:26:40.552Z,6.50
2019-04-10T06:29:09.130Z,5.07
2019-04-10T06:31:38.928Z,6.60
2019-04-10T06:34:08.776Z,6.73
2019-04-10T06:36:37.572Z,5.77
2019-04-10T06:39:06.953Z,5.30
2019-04-10T06:41:36.803Z,6.47
2019-04-10T06:44:05.740Z,7.17
2019-04-10T06:46:35.456Z,6.53
2019-04-10T06:49:05.554Z,5.90
2019-04-10T06:51:35.480Z,5.47
2019-04-10T06:54:09.095Z,7.63
2019-04-10T06:56:35.378Z,6.53
2019-04-10T06:59:04.596Z,6.93
2019-04-10T07:01:40.597Z,7.40
2019-04-10T07:04:07.365Z,5.93
2019-04-10T07:06:47.458Z,7.47
2019-04-10T07:09:05.596Z,6.57
2019-04-10T07:11:34.518Z,6.97
2019-04-10T07:14:03.126Z,6.77
2019-04-10T07:16:34.014Z,6.53
2019-04-10T07:19:05.592Z,6.47
2019-04-10T07:21:35.167Z,7.10
2019-04-10T07:24:05.401Z,10.57
2019-04-10T07:26:39.386Z,8.73
2019-04-10T07:29:03.347Z,6.70
2019-04-10T07:31:34.969Z,6.33
2019-04-10T07:34:03.330Z,7.13
2019-04-10T07:36:32.909Z,6.27
2019-04-10T07:39:01.568Z,7.57
2019-04-10T07:41:30.104Z,8.27
2019-04-10T07:43:58.774Z,7.57
2019-04-10T07:46:28.268Z,8.43
2019-04-10T07:48:56.944Z,9.20
2019-04-10T07:51:25.656Z,7.23
2019-04-10T07:53:54.299Z,6.40
2019-04-10T07:56:23.050Z,7.00
2019-04-10T07:58:51.791Z,6.00
2019-04-10T08:01:20.390Z,6.70
2019-04-10T08:03:51.291Z,7.57
2019-04-10T08:06:19.925Z,6.50
2019-04-10T08:08:49.186Z,6.13
2019-04-10T08:11:17.798Z,8.23
2019-04-10T08:13:47.074Z,7.13
2019-04-10T08:16:16.939Z,6.40
2019-04-10T08:18:45.763Z,7.60
2019-04-10T08:21:15.519Z,7.93
2019-04-10T08:23:44.602Z,7.20
2019-04-10T08:26:14.237Z,8.23
2019-04-10T08:28:43.313Z,7.47
2019-04-10T08:31:12.770Z,6.40
2019-04-10T08:33:42.028Z,9.47
2019-04-10T08:36:10.887Z,7.60
2019-04-10T08:38:40.107Z,6.97
2019-04-10T08:41:08.774Z,6.90
2019-04-10T08:43:37.549Z,8.63
2019-04-10T08:46:06.199Z,5.23
2019-04-10T08:48:34.785Z,7.47
2019-04-10T08:51:03.337Z,7.47
2019-04-10T08:53:31.915Z,8.17
2019-04-10T08:56:00.498Z,6.83
2019-04-10T08:58:29.066Z,7.13
2019-04-10T09:00:58.667Z,6.80
2019-04-10T09:03:27.291Z,6.50
2019-04-10T09:05:55.873Z,7.50
2019-04-10T09:08:24.624Z,7.27
2019-04-10T09:10:54.459Z,7.03
2019-04-10T09:13:24.048Z,6.10
2019-04-10T09:15:52.832Z,7.17
2019-04-10T09:18:21.395Z,6.43
2019-04-10T09:20:50.932Z,6.37
2019-04-10T09:23:30.771Z,7.13
2019-04-10T09:25:49.766Z,6.53
2019-04-10T09:28:18.331Z,8.63
2019-04-10T09:30:46.937Z,8.20
2019-04-10T09:33:21.550Z,7.57
2019-04-10T09:35:46.830Z,5.90
2019-04-10T09:38:15.442Z,6.40
2019-04-10T09:40:44.714Z,6.93
2019-04-10T09:43:14.232Z,7.00
2019-04-10T09:45:43.735Z,6.20
2019-04-10T09:48:12.789Z,8.00
2019-04-10T09:50:41.814Z,6.33
2019-04-10T09:53:10.771Z,7.30
2019-04-10T09:55:40.284Z,7.07
2019-04-10T09:58:09.068Z,5.47
2019-04-10T10:00:38.171Z,5.97
2019-04-10T10:03:07.656Z,5.73
2019-04-10T10:05:36.924Z,7.03
2019-04-10T10:08:07.410Z,6.27
2019-04-10T10:10:37.200Z,6.10
2019-04-10T10:13:06.058Z,7.03
2019-04-10T10:15:35.575Z,7.80
2019-04-10T10:18:05.395Z,5.90
2019-04-10T10:20:34.075Z,6.23
2019-04-10T10:23:03.321Z,8.87
2019-04-10T10:25:32.116Z,6.20
2019-04-10T10:28:00.743Z,6.67
2019-04-10T10:30:29.399Z,5.97
2019-04-10T10:32:57.918Z,6.43
2019-04-10T10:35:27.256Z,8.37
2019-04-10T10:37:56.801Z,6.37
2019-04-10T10:40:25.651Z,8.00
2019-04-10T10:42:54.189Z,6.17
2019-04-10T10:45:22.880Z,6.80
2019-04-10T10:47:52.592Z,6.03
2019-04-10T10:50:22.127Z,9.43
2019-04-10T10:52:50.789Z,6.40
2019-04-10T10:55:19.381Z,6.40
2019-04-10T10:57:49.029Z,7.40
2019-04-10T11:00:18.926Z,5.73
2019-04-10T11:02:47.679Z,6.50
2019-04-10T11:05:16.983Z,5.03
2019-04-10T11:07:47.010Z,5.60
2019-04-10T11:10:19.771Z,6.87
2019-04-10T11:12:46.687Z,5.67
2019-04-10T11:15:16.209Z,4.97
2019-04-10T11:17:46.060Z,5.70
2019-04-10T11:20:15.423Z,5.27
2019-04-10T11:22:44.949Z,6.87
2019-04-10T11:25:13.623Z,5.40
2019-04-10T11:27:42.504Z,6.60
2019-04-10T11:30:12.602Z,5.77
2019-04-10T11:32:42.219Z,5.87
2019-04-10T11:35:11.371Z,4.67
2019-04-10T11:37:44.548Z,6.83
2019-04-10T11:40:12.176Z,6.40
2019-04-10T11:42:40.666Z,6.13
2019-04-10T11:45:10.613Z,6.93
2019-04-10T11:47:39.634Z,7.07
2019-04-10T11:50:13.520Z,5.63
2019-04-10T11:52:44.760Z,5.47
2019-04-10T11:55:15.974Z,7.10
2019-04-10T11:57:41.970Z,6.57
2019-04-10T12:00:16.983Z,7.40
2019-04-10T12:02:44.987Z,6.10
2019-04-10T12:05:18.399Z,6.57
2019-04-10T12:08:14.785Z,5.60
2019-04-10T12:12:43.863Z,6.27
2019-04-10T12:15:12.623Z,7.93
2019-04-10T12:17:42.989Z,6.10
2019-04-10T12:20:11.571Z,6.37
2019-04-10T12:22:40.698Z,6.10
2019-04-10T12:25:10.235Z,5.27
2019-04-10T12:27:39.121Z,6.03
2019-04-10T12:30:11.172Z,5.67
2019-04-10T12:32:40.981Z,5.40
2019-04-10T12:35:10.940Z,6.87
2019-04-10T12:37:39.589Z,6.90
2019-04-10T12:40:09.749Z,6.20
2019-04-10T12:42:38.729Z,5.00
2019-04-10T12:45:08.243Z,5.13
2019-04-10T12:47:37.685Z,5.40
2019-04-10T12:50:09.605Z,5.07
2019-04-10T12:52:38.785Z,5.60
2019-04-10T12:55:08.116Z,4.60
2019-04-10T12:57:37.078Z,4.87
2019-04-10T13:00:09.719Z,4.90
2019-04-10T13:02:38.625Z,4.93
2019-04-10T13:05:07.554Z,6.10
2019-04-10T13:07:36.152Z,5.30
2019-04-10T13:10:07.122Z,4.77
2019-04-10T13:12:35.783Z,5.40
2019-04-10T13:15:08.861Z,5.80
2019-04-10T13:17:38.526Z,6.10
2019-04-10T13:20:11.555Z,5.77
2019-04-10T13:22:40.237Z,5.20
2019-04-10T13:25:10.158Z,5.20
2019-04-10T13:27:39.046Z,8.50
2019-04-10T13:30:11.677Z,5.00
2019-04-10T13:32:40.543Z,4.57
2019-04-10T13:35:10.362Z,5.07
2019-04-10T13:37:39.055Z,4.63
2019-04-10T13:40:08.163Z,5.57
2019-04-10T13:42:38.973Z,4.93
2019-04-10T13:45:08.197Z,4.03
2019-04-10T13:47:36.861Z,4.10
2019-04-10T13:50:08.481Z,4.50
2019-04-10T13:52:38.926Z,3.73
2019-04-10T13:55:08.923Z,4.40
2019-04-10T13:57:39.170Z,3.77
2019-04-10T14:00:11.269Z,5.00
2019-04-10T14:02:39.949Z,4.40
2019-04-10T14:05:11.635Z,3.67
2019-04-10T14:07:40.312Z,4.23
2019-04-10T14:10:10.501Z,3.73
2019-04-10T14:12:39.226Z,4.10
2019-04-10T14:15:08.327Z,3.50
2019-04-10T14:17:37.615Z,4.13
2019-04-10T14:20:07.052Z,3.67
2019-04-10T14:22:37.959Z,3.53
2019-04-10T14:25:09.482Z,3.83
2019-04-10T14:27:38.536Z,3.63
2019-04-10T14:30:09.849Z,3.67
2019-04-10T14:32:39.647Z,3.10
2019-04-10T14:35:09.787Z,3.03
2019-04-10T14:37:38.574Z,3.23
2019-04-10T14:40:09.364Z,3.43
2019-04-10T14:42:38.400Z,4.40
2019-04-10T14:45:09.028Z,3.17
2019-04-10T14:47:37.749Z,3.13
2019-04-10T14:50:07.540Z,3.13
2019-04-10T14:52:37.150Z,2.90
2019-04-10T14:55:06.215Z,3.27
2019-04-10T14:57:34.969Z,3.53
2019-04-10T15:00:10.443Z,2.90
2019-04-10T15:02:39.779Z,4.17
2019-04-10T15:05:10.036Z,3.53
2019-04-10T15:07:39.436Z,3.60
2019-04-10T15:10:09.307Z,3.10
2019-04-10T15:12:37.876Z,3.00
2019-04-10T15:15:06.610Z,5.00
2019-04-10T15:17:35.184Z,3.53
2019-04-10T15:20:04.894Z,3.20
2019-04-10T15:22:33.838Z,3.23
2019-04-10T15:25:06.800Z,3.10
2019-04-10T15:27:35.555Z,3.23
2019-04-10T15:30:07.006Z,2.83
2019-04-10T15:32:35.862Z,3.30
2019-04-10T15:35:06.256Z,3.83
2019-04-10T15:37:35.351Z,3.47
2019-04-10T15:40:18.128Z,4.10
2019-04-10T15:42:37.250Z,2.93
2019-04-10T15:45:07.279Z,3.30
2019-04-10T15:47:35.911Z,2.80
2019-04-10T15:50:08.297Z,3.13
2019-04-10T15:52:37.538Z,3.60
2019-04-10T15:55:07.783Z,3.73
2019-04-10T15:57:45.791Z,3.73
2019-04-10T16:00:10.754Z,4.17
2019-04-10T16:02:40.513Z,4.53
2019-04-10T16:05:09.267Z,5.10
2019-04-10T16:07:38.353Z,3.30
2019-04-10T16:10:25.625Z,3.87
2019-04-10T16:12:55.529Z,3.60
2019-04-10T16:15:25.092Z,3.70
2019-04-10T16:17:55.394Z,4.03
2019-04-10T16:20:31.642Z,3.20
2019-04-10T16:23:10.414Z,3.40
2019-04-10T16:25:40.645Z,3.10
2019-04-10T16:28:11.046Z,3.13
2019-04-10T16:30:39.731Z,3.33
2019-04-10T16:33:09.065Z,3.10
2019-04-10T16:35:38.382Z,8.03
2019-04-10T16:38:07.080Z,3.65
2019-04-10T16:40:36.201Z,3.50
2019-04-10T16:43:06.116Z,3.15
2019-04-10T16:45:34.858Z,3.62
2019-04-10T16:48:03.609Z,4.10
2019-04-10T16:50:32.202Z,4.20
2019-04-10T16:53:01.330Z,3.60
2019-04-10T16:55:29.935Z,4.07
2019-04-10T16:57:59.123Z,3.12
2019-04-10T17:00:27.752Z,3.33
2019-04-10T17:02:56.649Z,3.52
2019-04-10T17:05:25.345Z,3.20
2019-04-10T17:07:55.296Z,3.07
2019-04-10T17:10:27.590Z,4.05
2019-04-10T17:12:58.161Z,3.15
2019-04-10T17:15:28.215Z,3.83
2019-04-10T17:17:56.999Z,3.92
2019-04-10T17:20:26.849Z,4.45
2019-04-10T17:22:56.341Z,3.45
2019-04-10T17:25:26.262Z,4.00
2019-04-10T17:27:56.185Z,4.27
2019-04-10T17:30:25.439Z,3.95
2019-04-10T17:32:54.472Z,4.20
2019-04-10T17:35:23.932Z,3.67
2019-04-10T17:37:54.006Z,4.65
2019-04-10T17:40:33.047Z,4.10
2019-04-10T17:42:54.643Z,3.80
2019-04-10T17:45:25.500Z,4.53
2019-04-10T17:47:54.979Z,4.10
2019-04-10T17:50:24.657Z,4.00
2019-04-10T17:52:53.410Z,4.20
2019-04-10T17:55:23.099Z,3.93
2019-04-10T17:57:54.479Z,4.73
2019-04-10T18:00:31.322Z,3.77
2019-04-10T18:03:01.108Z,4.93
2019-04-10T18:05:30.768Z,6.33
2019-04-10T18:08:00.695Z,4.83
2019-04-10T18:10:41.059Z,4.20
2019-04-10T18:13:00.799Z,3.83
2019-04-10T18:15:30.283Z,4.83
2019-04-10T18:17:59.718Z,4.33
2019-04-10T18:20:28.460Z,4.00
2019-04-10T18:22:58.619Z,3.97
2019-04-10T18:25:27.853Z,8.57
2019-04-10T18:27:57.246Z,4.93
2019-04-10T18:30:26.352Z,6.07
2019-04-10T18:32:56.112Z,4.50
2019-04-10T18:35:24.844Z,5.20
2019-04-10T18:37:53.570Z,5.50
2019-04-10T18:40:23.250Z,4.43
2019-04-10T18:42:51.890Z,4.37
2019-04-10T18:45:20.466Z,4.03
2019-04-10T18:47:50.152Z,5.03
2019-04-10T18:50:18.826Z,6.27
2019-04-10T18:52:47.693Z,5.23
2019-04-10T18:55:16.363Z,7.00
2019-04-10T18:57:45.218Z,3.73
2019-04-10T19:00:32.372Z,5.17
2019-04-10T19:03:17.600Z,5.13
2019-04-10T19:05:56.563Z,5.33
2019-04-10T19:08:26.025Z,4.23
2019-04-10T19:11:08.390Z,4.67
2019-04-10T19:13:25.032Z,7.13
2019-04-10T19:15:53.612Z,4.47
2019-04-10T19:18:22.369Z,5.90
2019-04-10T19:20:51.930Z,5.20
2019-04-10T19:23:22.392Z,3.90
2019-04-10T19:25:51.279Z,5.80
2019-04-10T19:28:30.008Z,3.60
2019-04-10T19:30:55.415Z,5.50
2019-04-10T19:33:25.868Z,4.17
2019-04-10T19:35:55.178Z,4.80
2019-04-10T19:38:23.822Z,4.87
2019-04-10T19:40:52.457Z,4.17
2019-04-10T19:43:22.071Z,4.10
2019-04-10T19:45:52.146Z,3.63
2019-04-10T19:48:21.332Z,3.87
2019-04-10T19:50:50.183Z,4.07
2019-04-10T19:53:19.272Z,4.23
2019-04-10T19:55:48.341Z,5.37
2019-04-10T19:58:17.681Z,3.70
2019-04-10T20:00:46.557Z,3.73
2019-04-10T20:03:15.292Z,4.50
2019-04-10T20:05:43.836Z,4.50
2019-04-10T20:08:13.134Z,3.47
2019-04-10T20:10:41.762Z,3.87
2019-04-10T20:13:10.361Z,3.93
2019-04-10T20:15:38.927Z,3.83
2019-04-10T20:18:08.499Z,5.10
2019-04-10T20:20:37.493Z,4.73
2019-04-10T20:23:06.794Z,4.00
2019-04-10T20:25:36.579Z,4.60
2019-04-10T20:28:06.700Z,6.07
2019-04-10T20:30:35.572Z,5.00
2019-04-10T20:33:04.153Z,3.00
2019-04-10T20:35:32.723Z,3.83
2019-04-10T20:38:01.293Z,3.17
2019-04-10T20:40:29.865Z,3.60
2019-04-10T20:42:58.480Z,2.60
2019-04-10T20:45:27.360Z,4.77
2019-04-10T20:47:56.176Z,3.37
2019-04-10T20:50:25.906Z,4.97
2019-04-10T20:52:55.709Z,3.37
2019-04-10T20:55:24.343Z,3.97
2019-04-10T20:57:54.110Z,4.13
2019-04-10T21:00:34.099Z,3.83
2019-04-10T21:03:02.893Z,4.53
2019-04-10T21:05:31.689Z,5.57
2019-04-10T21:08:00.276Z,4.30
2019-04-10T21:10:29.093Z,4.73
2019-04-10T21:12:58.374Z,3.43
2019-04-10T21:15:27.867Z,5.33
2019-04-10T21:17:57.033Z,6.90
2019-04-10T21:20:26.131Z,3.83
2019-04-10T21:22:55.675Z,4.93
2019-04-10T21:25:25.265Z,5.03
2019-04-10T21:27:55.103Z,3.77
2019-04-10T21:30:31.811Z,4.47
2019-04-10T21:33:02.026Z,4.40
2019-04-10T21:35:35.207Z,3.60
2019-04-10T21:38:04.806Z,5.67
2019-04-10T21:40:34.743Z,3.87
2019-04-10T21:43:03.764Z,2.97
2019-04-10T21:45:33.575Z,4.17
2019-04-10T21:48:02.200Z,3.90
2019-04-10T21:50:30.719Z,3.37
2019-04-10T21:52:59.629Z,3.70
2019-04-10T21:55:29.061Z,3.97
2019-04-10T21:57:57.705Z,3.80
2019-04-10T22:00:44.940Z,3.73
2019-04-10T22:03:13.621Z,4.17
2019-04-10T22:05:44.527Z,3.67
2019-04-10T22:08:31.574Z,3.77
2019-04-10T22:11:00.795Z,3.70
2019-04-10T22:13:30.178Z,4.00
2019-04-10T22:15:59.683Z,3.97
2019-04-10T22:18:29.496Z,5.10
2019-04-10T22:20:58.644Z,4.17
2019-04-10T22:23:27.305Z,3.40
2019-04-10T22:25:56.345Z,4.77
2019-04-10T22:28:25.348Z,8.13
2019-04-10T22:30:54.681Z,3.10
2019-04-10T22:33:24.315Z,3.23
2019-04-10T22:35:52.921Z,4.80
2019-04-10T22:38:21.584Z,3.97
2019-04-10T22:40:50.405Z,3.83
2019-04-10T22:43:18.909Z,5.60
2019-04-10T22:45:48.603Z,4.37
2019-04-10T22:48:17.276Z,2.97
2019-04-10T22:50:47.103Z,3.03
2019-04-10T22:53:15.807Z,4.50
2019-04-10T22:55:44.462Z,4.30
2019-04-10T22:58:13.060Z,3.97
2019-04-10T23:00:41.835Z,3.33
2019-04-10T23:03:11.447Z,3.57
2019-04-10T23:05:40.640Z,4.70
2019-04-10T23:08:09.428Z,4.07
2019-04-10T23:10:39.171Z,3.90
2019-04-10T23:13:08.902Z,3.93
2019-04-10T23:15:38.035Z,4.40
2019-04-10T23:18:07.548Z,5.80
2019-04-10T23:20:36.287Z,4.30
2019-04-10T23:23:04.918Z,6.27
2019-04-10T23:25:34.334Z,3.60
2019-04-10T23:28:03.196Z,5.53
2019-04-10T23:30:32.944Z,4.57
2019-04-10T23:33:01.803Z,5.53
2019-04-10T23:35:31.635Z,4.77
2019-04-10T23:38:01.374Z,4.50
2019-04-10T23:40:30.213Z,5.80
2019-04-10T23:43:07.546Z,3.77
2019-04-10T23:45:29.548Z,3.50
2019-04-10T23:47:58.354Z,4.20
2019-04-10T23:50:27.252Z,4.27
2019-04-10T23:52:56.246Z,3.90
2019-04-10T23:55:26.119Z,3.83
2019-04-10T23:57:55.877Z,3.27
